createdAt,value
2023-07-25T00:00:00.381Z,4.03
2023-07-25T00:02:28.876Z,6.40
2023-07-25T00:04:57.279Z,8.23
2023-07-25T00:07:25.643Z,6.67
2023-07-25T00:09:54.194Z,4.93
2023-07-25T00:12:22.575Z,4.67
2023-07-25T00:14:52.681Z,4.67
2023-07-25T00:17:21.066Z,2.87
2023-07-25T00:19:49.486Z,8.73
2023-07-25T00:22:17.849Z,5.50
2023-07-25T00:24:46.220Z,6.53
2023-07-25T00:27:14.706Z,6.03
2023-07-25T00:29:43.092Z,11.70
2023-07-25T00:32:12.935Z,5.07
2023-07-25T00:34:41.310Z,6.17
2023-07-25T00:37:09.700Z,2.77
2023-07-25T00:39:38.092Z,9.30
2023-07-25T00:42:06.840Z,3.70
2023-07-25T00:44:35.269Z,4.10
2023-07-25T00:47:03.889Z,7.10
2023-07-25T00:49:33.989Z,2.80
2023-07-25T00:52:02.336Z,3.83
2023-07-25T00:54:30.744Z,3.87
2023-07-25T00:56:59.126Z,3.53
2023-07-25T00:59:27.491Z,6.00
2023-07-25T01:01:55.909Z,4.33
2023-07-25T01:04:24.427Z,5.87
2023-07-25T01:06:54.936Z,4.83
2023-07-25T01:09:36.869Z,4.03
2023-07-25T01:12:05.505Z,4.90
2023-07-25T01:14:34.215Z,4.33
2023-07-25T01:17:03.441Z,4.40
2023-07-25T01:19:32.444Z,4.77
2023-07-25T01:22:02.322Z,10.10
2023-07-25T01:24:32.283Z,3.23
2023-07-25T01:27:00.648Z,5.43
2023-07-25T01:29:29.047Z,5.17
2023-07-25T01:31:57.403Z,4.27
2023-07-25T01:34:25.901Z,4.20
2023-07-25T01:36:54.458Z,4.00
2023-07-25T01:39:22.834Z,3.63
2023-07-25T01:41:52.596Z,4.73
2023-07-25T01:44:20.922Z,3.50
2023-07-25T01:46:49.334Z,4.13
2023-07-25T01:49:17.729Z,2.60
2023-07-25T01:51:46.158Z,10.77
2023-07-25T01:54:14.560Z,10.13
2023-07-25T01:56:42.950Z,11.90
2023-07-25T01:59:12.678Z,15.07
2023-07-25T02:01:41.134Z,8.77
2023-07-25T02:04:09.581Z,10.80
2023-07-25T02:06:37.967Z,10.93
2023-07-25T02:09:06.325Z,4.90
2023-07-25T02:11:34.914Z,5.83
2023-07-25T02:14:03.419Z,7.70
2023-07-25T02:16:37.659Z,8.13
2023-07-25T02:19:06.361Z,10.87
2023-07-25T02:21:34.783Z,6.27
2023-07-25T02:24:03.225Z,9.77
2023-07-25T02:26:31.554Z,6.20
2023-07-25T02:28:59.965Z,15.53
2023-07-25T02:31:28.340Z,9.00
2023-07-25T02:33:58.176Z,8.37
2023-07-25T02:36:26.599Z,9.00
2023-07-25T02:38:54.949Z,8.00
2023-07-25T02:41:23.553Z,6.70
2023-07-25T02:43:51.933Z,3.53
2023-07-25T02:46:20.299Z,6.70
2023-07-25T02:48:48.698Z,7.60
2023-07-25T02:51:18.429Z,6.80
2023-07-25T02:53:46.826Z,5.17
2023-07-25T02:56:15.218Z,5.83
2023-07-25T02:58:43.583Z,7.87
2023-07-25T03:01:13.140Z,6.27
2023-07-25T03:03:41.585Z,7.13
2023-07-25T03:06:10.237Z,4.93
2023-07-25T03:08:40.009Z,4.13
2023-07-25T03:11:08.476Z,11.67
2023-07-25T03:13:36.851Z,6.47
2023-07-25T03:16:05.264Z,9.57
2023-07-25T03:18:33.592Z,9.37
2023-07-25T03:21:01.988Z,10.07
2023-07-25T03:23:30.798Z,9.20
2023-07-25T03:26:00.613Z,9.47
2023-07-25T03:28:28.975Z,10.47
2023-07-25T03:30:57.504Z,7.40
2023-07-25T03:33:26.029Z,12.17
2023-07-25T03:35:54.412Z,19.47
2023-07-25T03:38:22.766Z,9.33
2023-07-25T03:40:51.172Z,12.13
2023-07-25T03:43:22.000Z,4.73
2023-07-25T03:45:50.446Z,7.03
2023-07-25T03:48:18.860Z,6.97
2023-07-25T03:50:47.228Z,6.43
2023-07-25T03:53:15.599Z,4.53
2023-07-25T03:55:43.948Z,7.97
2023-07-25T03:58:12.306Z,7.17
2023-07-25T04:00:42.265Z,5.60
2023-07-25T04:03:15.431Z,9.27
2023-07-25T04:05:44.473Z,7.90
2023-07-25T04:08:12.896Z,7.07
2023-07-25T04:10:41.330Z,3.03
2023-07-25T04:13:09.712Z,13.87
2023-07-25T04:15:38.094Z,9.80
2023-07-25T04:18:07.860Z,4.73
2023-07-25T04:20:36.184Z,7.20
2023-07-25T04:23:04.563Z,5.27
2023-07-25T04:25:33.022Z,4.83
2023-07-25T04:28:01.419Z,7.50
2023-07-25T04:30:29.791Z,4.80
2023-07-25T04:32:58.173Z,7.00
2023-07-25T04:35:27.901Z,6.30
2023-07-25T04:37:56.298Z,4.57
2023-07-25T04:40:24.705Z,4.43
2023-07-25T04:42:53.070Z,8.30
2023-07-25T04:45:21.480Z,5.17
2023-07-25T04:47:49.889Z,6.37
2023-07-25T04:50:18.353Z,5.50
2023-07-25T04:52:48.115Z,4.07
2023-07-25T04:55:16.482Z,5.70
2023-07-25T04:57:44.884Z,9.97
2023-07-25T05:00:13.682Z,5.97
2023-07-25T05:02:43.085Z,5.40
2023-07-25T05:05:11.533Z,10.07
2023-07-25T05:07:39.895Z,5.50
2023-07-25T05:10:10.548Z,6.57
2023-07-25T05:12:38.964Z,4.57
2023-07-25T05:15:07.971Z,7.00
2023-07-25T05:17:36.370Z,4.57
2023-07-25T05:20:04.841Z,6.30
2023-07-25T05:22:33.255Z,6.17
2023-07-25T05:25:01.625Z,12.80
2023-07-25T05:27:31.396Z,6.47
2023-07-25T05:29:59.788Z,4.63
2023-07-25T05:32:28.227Z,7.50
2023-07-25T05:34:56.775Z,11.63
2023-07-25T05:37:25.396Z,5.13
2023-07-25T05:39:53.827Z,6.53
2023-07-25T05:42:22.213Z,7.60
2023-07-25T05:44:51.969Z,7.87
2023-07-25T05:47:20.339Z,6.83
2023-07-25T05:49:48.714Z,8.40
2023-07-25T05:52:17.930Z,7.70
2023-07-25T05:54:46.656Z,7.50
2023-07-25T05:57:15.120Z,4.30
2023-07-25T05:59:45.016Z,14.33
2023-07-25T06:02:14.806Z,5.73
2023-07-25T06:04:44.187Z,12.90
2023-07-25T06:07:12.558Z,16.20
2023-07-25T06:09:40.910Z,6.80
2023-07-25T06:12:10.165Z,9.30
2023-07-25T06:14:38.601Z,6.57
2023-07-25T06:17:07.116Z,6.90
2023-07-25T06:19:36.844Z,7.03
2023-07-25T06:22:05.344Z,7.40
2023-07-25T06:24:33.782Z,5.20
2023-07-25T06:27:02.195Z,8.37
2023-07-25T06:29:30.582Z,4.57
2023-07-25T06:31:59.004Z,7.57
2023-07-25T06:34:27.416Z,7.23
2023-07-25T06:36:57.195Z,7.13
2023-07-25T06:39:25.629Z,9.03
2023-07-25T06:41:54.048Z,5.97
2023-07-25T06:44:22.475Z,7.17
2023-07-25T06:46:50.873Z,3.83
2023-07-25T06:49:19.296Z,5.00
2023-07-25T06:51:48.883Z,8.53
2023-07-25T06:54:18.761Z,3.80
2023-07-25T06:56:47.155Z,5.60
2023-07-25T06:59:15.561Z,4.33
2023-07-25T07:01:43.940Z,7.80
2023-07-25T07:04:12.323Z,4.30
2023-07-25T07:06:40.736Z,6.50
2023-07-25T07:09:09.155Z,6.57
2023-07-25T07:11:38.916Z,4.83
2023-07-25T07:14:07.349Z,5.60
2023-07-25T07:16:35.799Z,4.70
2023-07-25T07:19:05.021Z,6.73
2023-07-25T07:21:33.682Z,6.43
2023-07-25T07:24:02.377Z,6.10
2023-07-25T07:26:31.076Z,3.63
2023-07-25T07:29:00.838Z,9.93
2023-07-25T07:31:29.401Z,5.97
2023-07-25T07:34:10.985Z,5.70
2023-07-25T07:36:39.603Z,4.50
2023-07-25T07:39:07.992Z,3.47
2023-07-25T07:41:36.646Z,3.87
2023-07-25T07:44:06.628Z,6.00
2023-07-25T07:46:35.719Z,5.47
2023-07-25T07:49:04.122Z,6.17
2023-07-25T07:51:32.706Z,2.50
2023-07-25T07:54:01.436Z,3.50
2023-07-25T07:56:31.075Z,4.33
2023-07-25T07:58:59.489Z,5.90
2023-07-25T08:01:29.980Z,4.33
2023-07-25T08:03:58.960Z,5.80
2023-07-25T08:06:29.093Z,3.77
2023-07-25T08:08:57.493Z,1.90
2023-07-25T08:11:26.236Z,3.43
2023-07-25T08:13:54.738Z,28.13
2023-07-25T08:16:23.689Z,4.13
2023-07-25T08:18:54.664Z,5.57
2023-07-25T08:21:26.235Z,7.13
2023-07-25T08:23:54.718Z,3.00
2023-07-25T08:26:23.100Z,5.40
2023-07-25T08:28:51.617Z,5.17
2023-07-25T08:31:20.121Z,3.57
2023-07-25T08:33:48.531Z,2.90
2023-07-25T08:36:18.274Z,4.93
2023-07-25T08:38:46.612Z,3.50
2023-07-25T08:41:20.183Z,4.40
2023-07-25T08:43:48.874Z,3.47
2023-07-25T08:46:17.946Z,6.57
2023-07-25T08:48:46.606Z,5.53
2023-07-25T08:51:17.135Z,4.73
2023-07-25T08:53:53.082Z,4.13
2023-07-25T08:56:21.758Z,4.90
2023-07-25T08:58:50.689Z,6.10
2023-07-25T09:01:19.147Z,4.57
2023-07-25T09:03:49.032Z,2.37
2023-07-25T09:06:17.896Z,4.30
2023-07-25T09:08:47.600Z,5.10
2023-07-25T09:11:16.227Z,3.40
2023-07-25T09:13:46.171Z,2.23
2023-07-25T09:16:17.118Z,1.60
2023-07-25T09:18:45.733Z,1.77
2023-07-25T09:21:14.269Z,2.00
2023-07-25T09:23:43.452Z,2.60
2023-07-25T09:26:13.257Z,1.73
2023-07-25T09:28:50.090Z,2.87
2023-07-25T09:31:18.524Z,3.27
2023-07-25T09:33:49.458Z,2.27
2023-07-25T09:36:19.273Z,1.40
2023-07-25T09:38:51.780Z,1.63
2023-07-25T09:41:22.418Z,2.30
2023-07-25T09:43:51.053Z,1.97
2023-07-25T09:46:19.609Z,2.83
2023-07-25T09:48:49.242Z,2.00
2023-07-25T09:51:17.720Z,1.67
2023-07-25T09:53:46.598Z,5.10
2023-07-25T09:56:14.988Z,1.30
2023-07-25T09:59:04.489Z,6.10
2023-07-25T10:01:33.497Z,1.10
2023-07-25T10:04:02.344Z,3.83
2023-07-25T10:06:30.910Z,1.70
2023-07-25T10:08:59.403Z,1.60
2023-07-25T10:11:28.113Z,1.40
2023-07-25T10:13:57.887Z,1.63
2023-07-25T10:16:26.737Z,1.77
2023-07-25T10:18:55.748Z,1.70
2023-07-25T10:21:28.579Z,1.80
2023-07-25T10:24:01.140Z,2.40
2023-07-25T10:26:29.581Z,1.27
2023-07-25T10:29:02.332Z,1.53
2023-07-25T10:31:34.559Z,2.03
2023-07-25T10:34:05.334Z,3.40
2023-07-25T10:36:33.847Z,3.13
2023-07-25T10:39:07.044Z,1.30
2023-07-25T10:41:35.489Z,1.43
2023-07-25T10:44:05.466Z,2.40
2023-07-25T10:46:34.548Z,1.83
2023-07-25T10:49:03.353Z,1.50
2023-07-25T10:51:51.401Z,1.73
2023-07-25T10:54:20.301Z,9.43
2023-07-25T10:57:12.461Z,1.70
2023-07-25T10:59:55.689Z,4.20
2023-07-25T11:02:32.093Z,1.33
2023-07-25T11:05:19.205Z,2.10
2023-07-25T11:07:51.520Z,1.77
2023-07-25T11:10:24.035Z,1.20
2023-07-25T11:12:53.211Z,1.40
2023-07-25T11:15:29.024Z,1.70
2023-07-25T11:18:10.475Z,2.17
2023-07-25T11:20:38.844Z,1.40
2023-07-25T11:23:07.453Z,2.00
2023-07-25T11:25:35.900Z,2.43
2023-07-25T11:28:04.320Z,0.93
2023-07-25T11:30:34.670Z,1.00
2023-07-25T11:33:03.162Z,0.97
2023-07-25T11:35:33.657Z,3.03
2023-07-25T11:38:03.909Z,1.33
2023-07-25T11:40:32.988Z,1.30
2023-07-25T11:43:01.488Z,1.33
2023-07-25T11:45:30.424Z,1.30
2023-07-25T11:47:59.613Z,1.20
2023-07-25T11:50:31.365Z,3.50
2023-07-25T11:53:04.472Z,0.80
2023-07-25T11:55:33.026Z,5.23
2023-07-25T11:58:04.165Z,1.03
2023-07-25T12:00:41.046Z,2.83
2023-07-25T12:03:18.354Z,2.40
2023-07-25T12:05:53.023Z,1.73
2023-07-25T12:08:33.217Z,1.47
2023-07-25T12:11:05.161Z,1.43
2023-07-25T12:13:34.002Z,1.43
2023-07-25T12:16:03.299Z,0.93
2023-07-25T12:18:32.391Z,1.63
2023-07-25T12:21:01.646Z,1.60
2023-07-25T12:26:21.731Z,1.10
2023-07-25T12:28:50.523Z,1.77
2023-07-25T12:31:18.948Z,0.97
2023-07-25T12:33:49.274Z,0.70
2023-07-25T12:36:18.190Z,0.97
2023-07-25T12:38:47.971Z,0.80
2023-07-25T12:41:16.733Z,3.17
2023-07-25T12:43:46.539Z,0.97
2023-07-25T12:46:15.015Z,1.03
2023-07-25T12:48:43.412Z,1.30
2023-07-25T12:51:11.813Z,0.90
2023-07-25T12:53:40.673Z,1.87
2023-07-25T12:56:10.613Z,1.27
2023-07-25T12:58:39.039Z,1.00
2023-07-25T13:01:08.875Z,1.23
2023-07-25T13:03:41.747Z,1.03
2023-07-25T13:06:10.524Z,1.20
2023-07-25T13:08:38.911Z,0.90
2023-07-25T13:11:07.308Z,1.00
2023-07-25T13:13:35.708Z,6.90
2023-07-25T13:16:05.087Z,1.73
2023-07-25T13:18:35.064Z,1.63
2023-07-25T13:21:03.825Z,1.43
2023-07-25T13:23:32.276Z,1.90
2023-07-25T13:26:00.676Z,1.27
2023-07-25T13:28:29.109Z,1.70
2023-07-25T13:30:57.539Z,3.13
2023-07-25T13:33:26.085Z,2.20
2023-07-25T13:35:55.921Z,2.50
2023-07-25T13:38:24.336Z,1.40
2023-07-25T13:40:53.958Z,1.37
2023-07-25T13:43:22.444Z,2.50
2023-07-25T13:45:53.285Z,3.07
2023-07-25T13:48:22.649Z,4.00
2023-07-25T13:50:55.020Z,1.27
2023-07-25T13:53:25.117Z,4.97
2023-07-25T13:55:53.567Z,1.40
2023-07-25T13:58:24.720Z,1.70
2023-07-25T14:00:53.574Z,1.90
2023-07-25T14:03:21.936Z,2.20
2023-07-25T14:05:50.559Z,2.40
2023-07-25T14:08:19.247Z,1.83
2023-07-25T14:10:49.098Z,4.90
2023-07-25T14:13:17.612Z,3.43
2023-07-25T14:15:46.087Z,3.03
2023-07-25T14:18:15.342Z,2.07
2023-07-25T14:20:43.915Z,3.30
2023-07-25T14:23:12.345Z,1.10
2023-07-25T14:25:40.722Z,1.93
2023-07-25T14:28:10.565Z,1.23
2023-07-25T14:30:39.052Z,1.00
2023-07-25T14:33:08.077Z,3.80
2023-07-25T14:35:36.734Z,4.50
2023-07-25T14:38:08.023Z,3.33
2023-07-25T14:40:37.075Z,1.10
2023-07-25T14:43:05.605Z,0.70
2023-07-25T14:45:36.551Z,0.70
2023-07-25T14:48:05.187Z,1.90
2023-07-25T14:50:33.750Z,0.83
2023-07-25T14:53:02.141Z,1.20
2023-07-25T14:55:30.522Z,1.63
2023-07-25T14:57:58.895Z,1.00
2023-07-25T15:00:27.403Z,1.70
2023-07-25T15:02:57.318Z,1.73
2023-07-25T15:05:25.825Z,0.90
2023-07-25T15:07:55.988Z,1.03
2023-07-25T15:10:24.491Z,1.90
2023-07-25T15:12:52.857Z,3.07
2023-07-25T15:15:23.006Z,1.07
2023-07-25T15:17:51.419Z,1.40
2023-07-25T15:20:23.995Z,1.17
2023-07-25T15:22:52.451Z,0.80
2023-07-25T15:25:20.827Z,1.37
2023-07-25T15:27:49.194Z,3.40
2023-07-25T15:30:18.584Z,1.40
2023-07-25T15:32:47.085Z,1.47
2023-07-25T15:35:15.557Z,1.73
2023-07-25T15:37:45.415Z,4.13
2023-07-25T15:40:14.032Z,2.03
2023-07-25T15:42:42.527Z,2.50
2023-07-25T15:45:11.012Z,1.80
2023-07-25T15:47:39.414Z,2.30
2023-07-25T15:50:08.242Z,5.40
2023-07-25T15:52:36.804Z,2.00
2023-07-25T15:55:06.857Z,2.20
2023-07-25T15:57:35.249Z,1.93
2023-07-25T16:00:03.372Z,5.23
2023-07-25T16:02:31.600Z,1.57
2023-07-25T16:04:59.814Z,3.23
2023-07-25T16:07:28.101Z,2.10
2023-07-25T16:09:57.047Z,2.37
2023-07-25T16:12:26.797Z,5.40
2023-07-25T16:14:55.161Z,3.07
2023-07-25T16:17:23.295Z,1.67
2023-07-25T16:19:51.410Z,2.27
2023-07-25T16:22:19.561Z,2.70
2023-07-25T16:24:48.147Z,3.80
2023-07-25T16:27:16.250Z,1.60
2023-07-25T16:29:45.689Z,3.77
2023-07-25T16:32:13.890Z,2.03
2023-07-25T16:34:41.968Z,2.20
2023-07-25T16:37:10.208Z,1.90
2023-07-25T16:39:38.290Z,3.70
2023-07-25T16:42:06.984Z,2.70
2023-07-25T16:44:35.047Z,1.43
2023-07-25T16:47:04.750Z,6.23
2023-07-25T16:49:32.818Z,4.50
2023-07-25T16:52:01.005Z,2.40
2023-07-25T16:54:29.106Z,1.90
2023-07-25T16:56:57.615Z,2.00
2023-07-25T16:59:25.672Z,1.43
2023-07-25T17:01:53.778Z,1.10
2023-07-25T17:04:23.244Z,5.30
2023-07-25T17:06:51.354Z,2.87
2023-07-25T17:09:19.482Z,3.13
2023-07-25T17:11:47.597Z,0.87
2023-07-25T17:14:15.658Z,2.87
2023-07-25T17:16:43.730Z,1.80
2023-07-25T17:19:14.672Z,1.30
2023-07-25T17:21:49.128Z,1.13
2023-07-25T17:24:17.756Z,2.40
2023-07-25T17:26:47.372Z,1.40
2023-07-25T17:29:22.806Z,2.37
2023-07-25T17:31:54.416Z,1.43
2023-07-25T17:34:30.882Z,2.97
2023-07-25T17:37:03.555Z,1.70
2023-07-25T17:39:34.199Z,1.60
2023-07-25T17:42:02.550Z,1.03
2023-07-25T17:44:31.768Z,2.43
2023-07-25T17:47:03.441Z,1.20
2023-07-25T17:49:35.304Z,2.57
2023-07-25T17:52:08.383Z,1.77
2023-07-25T17:54:40.112Z,3.30
2023-07-25T17:57:11.707Z,1.77
2023-07-25T17:59:43.266Z,2.27
2023-07-25T18:02:14.843Z,3.03
2023-07-25T18:04:46.792Z,2.83
2023-07-25T18:07:19.758Z,4.37
2023-07-25T18:09:53.502Z,2.67
2023-07-25T18:12:24.955Z,5.07
2023-07-25T18:15:00.722Z,7.00
2023-07-25T18:17:45.862Z,5.00
2023-07-25T18:20:21.166Z,9.93
2023-07-25T18:22:50.898Z,4.43
2023-07-25T18:25:19.316Z,3.80
2023-07-25T18:27:47.650Z,4.80
2023-07-25T18:30:16.123Z,3.33
2023-07-25T18:32:44.609Z,3.63
2023-07-25T18:35:13.025Z,9.93
2023-07-25T18:37:41.401Z,4.53
2023-07-25T18:40:11.768Z,2.47
2023-07-25T18:42:40.121Z,2.77
2023-07-25T18:45:09.136Z,4.23
2023-07-25T18:47:37.619Z,5.30
2023-07-25T18:50:06.394Z,4.97
2023-07-25T18:52:34.836Z,4.50
2023-07-25T18:55:03.621Z,3.30
2023-07-25T18:57:33.512Z,4.17
2023-07-25T19:00:01.878Z,2.97
2023-07-25T19:02:30.312Z,3.13
2023-07-25T19:04:58.707Z,4.83
2023-07-25T19:07:27.111Z,4.93
2023-07-25T19:09:55.649Z,3.20
2023-07-25T19:12:24.268Z,7.53
2023-07-25T19:14:54.008Z,4.30
2023-07-25T19:17:23.352Z,4.67
2023-07-25T19:19:53.284Z,4.70
2023-07-25T19:22:22.600Z,1.90
2023-07-25T19:24:52.036Z,3.20
2023-07-25T19:27:21.362Z,6.20
2023-07-25T19:29:50.663Z,3.63
2023-07-25T19:32:21.357Z,6.60
2023-07-25T19:34:52.238Z,3.53
2023-07-25T19:37:21.622Z,3.93
2023-07-25T19:39:51.286Z,6.03
2023-07-25T19:42:20.764Z,3.37
2023-07-25T19:44:50.280Z,4.70
2023-07-25T19:47:22.810Z,3.73
2023-07-25T19:49:52.393Z,4.83
2023-07-25T19:52:23.551Z,4.53
2023-07-25T19:54:54.707Z,3.77
2023-07-25T19:57:24.130Z,3.53
2023-07-25T19:59:54.025Z,3.90
2023-07-25T20:02:26.797Z,4.83
2023-07-25T20:04:56.433Z,6.73
2023-07-25T20:07:25.936Z,3.83
2023-07-25T20:09:57.353Z,2.93
2023-07-25T20:12:28.957Z,5.93
2023-07-25T20:15:00.495Z,5.87
2023-07-25T20:17:33.460Z,5.63
2023-07-25T20:20:06.959Z,4.60
2023-07-25T20:22:40.449Z,5.50
2023-07-25T20:25:13.097Z,5.53
2023-07-25T20:27:44.773Z,3.33
2023-07-25T20:30:16.899Z,7.13
2023-07-25T20:32:49.973Z,5.97
2023-07-25T20:35:21.621Z,3.87
2023-07-25T20:37:53.273Z,4.37
2023-07-25T20:40:24.990Z,9.80
2023-07-25T20:42:56.562Z,3.93
2023-07-25T20:45:28.227Z,3.93
2023-07-25T20:48:03.099Z,4.80
2023-07-25T20:50:36.607Z,5.70
2023-07-25T20:53:10.306Z,6.47
2023-07-25T20:55:50.572Z,10.80
2023-07-25T20:58:22.174Z,7.10
2023-07-25T21:00:53.769Z,5.50
2023-07-25T21:03:27.344Z,16.07
2023-07-25T21:05:59.140Z,4.50
2023-07-25T21:08:32.897Z,6.23
2023-07-25T21:11:13.805Z,11.53
2023-07-25T21:13:42.289Z,4.90
2023-07-25T21:16:10.761Z,5.13
2023-07-25T21:18:40.618Z,7.13
2023-07-25T21:21:08.987Z,6.53
2023-07-25T21:23:37.391Z,8.67
2023-07-25T21:26:05.847Z,11.10
2023-07-25T21:28:34.253Z,12.27
2023-07-25T21:31:02.440Z,6.80
2023-07-25T21:33:31.236Z,9.43
2023-07-25T21:36:11.908Z,9.63
2023-07-25T21:38:42.129Z,11.20
2023-07-25T21:41:14.618Z,6.13
2023-07-25T21:43:43.435Z,8.13
2023-07-25T21:46:12.015Z,8.20
2023-07-25T21:48:42.233Z,6.10
2023-07-25T21:51:11.948Z,5.77
2023-07-25T21:53:40.311Z,6.80
2023-07-25T21:56:08.744Z,5.23
2023-07-25T21:58:38.177Z,9.90
2023-07-25T22:01:08.635Z,6.33
2023-07-25T22:03:37.106Z,5.77
2023-07-25T22:06:06.256Z,11.40
2023-07-25T22:08:36.451Z,6.50
2023-07-25T22:11:04.649Z,10.70
2023-07-25T22:13:33.059Z,7.53
2023-07-25T22:16:01.178Z,8.13
2023-07-25T22:18:29.393Z,10.17
2023-07-25T22:20:59.651Z,9.07
2023-07-25T22:23:28.022Z,9.60
2023-07-25T22:26:01.989Z,15.57
2023-07-25T22:28:30.093Z,10.43
2023-07-25T22:31:02.644Z,8.73
2023-07-25T22:33:30.856Z,13.23
2023-07-25T22:35:58.977Z,9.63
2023-07-25T22:38:27.117Z,10.03
2023-07-25T22:40:55.228Z,14.20
2023-07-25T22:43:24.692Z,11.10
2023-07-25T22:45:53.824Z,9.73
2023-07-25T22:48:23.143Z,11.77
2023-07-25T22:50:52.441Z,11.33
2023-07-25T22:53:21.742Z,10.87
2023-07-25T22:55:50.997Z,11.87
2023-07-25T22:58:20.248Z,13.63
2023-07-25T23:00:50.897Z,12.90
2023-07-25T23:03:20.275Z,14.63
2023-07-25T23:05:49.706Z,22.03
2023-07-25T23:08:19.119Z,17.13
2023-07-25T23:10:48.332Z,16.53
2023-07-25T23:13:17.603Z,13.77
2023-07-25T23:15:47.041Z,13.83
2023-07-25T23:18:17.754Z,14.50
2023-07-25T23:20:48.001Z,13.87
2023-07-25T23:23:17.489Z,15.90
2023-07-25T23:25:46.816Z,19.60
2023-07-25T23:28:16.155Z,20.40
2023-07-25T23:30:45.463Z,11.43
2023-07-25T23:33:14.929Z,14.50
2023-07-25T23:35:45.814Z,14.43
2023-07-25T23:38:15.286Z,13.47
2023-07-25T23:40:44.804Z,16.33
2023-07-25T23:43:14.231Z,18.23
2023-07-25T23:45:43.682Z,20.00
2023-07-25T23:48:13.041Z,18.53
2023-07-25T23:50:42.576Z,18.03
2023-07-25T23:53:13.519Z,21.60
2023-07-25T23:55:42.950Z,17.50
2023-07-25T23:58:12.404Z,20.17
